Big Bear Station Historical Data
Daily Summary for November 19, 2017 Units:  English    Metric   Both
« Previous Day
Next Day »
Daily Weekly Monthly Yearly Custom
  High: Low: Average:
Temperature: 59.7 °F 22.6 °F 35.5 °F
Dew Point: 19.2 °F 1.7 °F 13.5 °F
Humidity: 85 % 12 % 47 %
Wind Speed: 4.2 mph 0.0 mph 0.6 mph
Wind Gust: -999.0 mph - -
Wind:- - WSW
Pressure: 30.25 in 30.16 in -
Precipitation: 0.00 in    
Historical Graphs
 
 
Tabular Data for November 19, 2017
Time Temperature Dew Point Pressure Wind Wind Speed Wind Gust Humidity Rainfall Rate (Hourly)
00:05 25.9 °F 19.1 °F 30.25 in Calm   -999.0 mph 75 % 0 in
00:21 25.7 °F 18.9 °F 30.25 in Calm   -999.0 mph 75 % 0 in
00:36 25.5 °F 15.4 °F 30.25 in Calm   -999.0 mph 65 % 0 in
00:51 25.5 °F 14.7 °F 30.25 in Calm   -999.0 mph 63 % 0 in
01:21 24.6 °F 13.4 °F 30.24 in Calm   -999.0 mph 62 % 0 in
01:37 24.6 °F 13.8 °F 30.24 in Calm   -999.0 mph 63 % 0 in
01:52 24.8 °F 17.7 °F 30.23 in Calm   -999.0 mph 74 % 0 in
02:07 24.6 °F 18.1 °F 30.23 in Calm   -999.0 mph 76 % 0 in
02:53 24.4 °F 17.3 °F 30.22 in Calm   -999.0 mph 74 % 0 in
03:08 24.3 °F 16.6 °F 30.22 in Calm   -999.0 mph 72 % 0 in
03:23 24.3 °F 17.2 °F 30.21 in Calm   -999.0 mph 74 % 0 in
04:09 23.5 °F 16.4 °F 30.22 in Calm   -999.0 mph 74 % 0 in
04:24 23.9 °F 17.1 °F 30.21 in Calm   -999.0 mph 75 % 0 in
04:39 23.2 °F 14.9 °F 30.21 in Calm   -999.0 mph 70 % 0 in
04:54 23.4 °F 15.7 °F 30.21 in Calm   -999.0 mph 72 % 0 in
05:25 23.0 °F 18.0 °F 30.21 in Calm   -999.0 mph 81 % 0 in
05:40 23.4 °F 19.0 °F 30.21 in Calm   -999.0 mph 83 % 0 in
05:55 22.8 °F 19.0 °F 30.21 in Calm   -999.0 mph 85 % 0 in
06:10 23.0 °F 19.2 °F 30.22 in Calm   -999.0 mph 85 % 0 in
06:41 23.5 °F 17.9 °F 30.23 in Calm   -999.0 mph 79 % 0 in
06:56 23.0 °F 17.5 °F 30.24 in Calm   -999.0 mph 79 % 0 in
07:11 22.6 °F 17.4 °F 30.23 in Calm   -999.0 mph 80 % 0 in
07:26 23.0 °F 15.9 °F 30.23 in Calm   -999.0 mph 74 % 0 in
07:42 23.4 °F 17.3 °F 30.24 in Calm   -999.0 mph 77 % 0 in
07:57 24.4 °F 18.8 °F 30.24 in Calm   -999.0 mph 79 % 0 in
08:12 27.5 °F 18.7 °F 30.24 in Calm   -999.0 mph 69 % 0 in
08:27 27.0 °F 17.5 °F 30.25 in Calm   -999.0 mph 67 % 0 in
08:58 33.8 °F 16.2 °F 30.24 in Calm   -999.0 mph 48 % 0 in
10:29 48.7 °F 16.2 °F 30.22 in Calm   -999.0 mph 27 % 0 in
10:44 50.5 °F 5.9 °F 30.21 in Calm   -999.0 mph 16 % 0 in
10:59 55.4 °F 9.9 °F 30.21 in Calm   -999.0 mph 16 % 0 in
11:30 57.4 °F 5.1 °F 30.20 in WSW 3.7 mph -999.0 mph 12 % 0 in
12:01 59.7 °F 6.9 °F 30.18 in West 2.2 mph -999.0 mph 12 % 0 in
12:16 58.8 °F 12.7 °F 30.17 in NNW 3.7 mph -999.0 mph 16 % 0 in
12:46 58.6 °F 12.5 °F 30.17 in NW 4.2 mph -999.0 mph 16 % 0 in
13:48 56.5 °F 15.9 °F 30.16 in NNW 3.7 mph -999.0 mph 20 % 0 in
14:03 56.1 °F 13.1 °F 30.16 in NNW 1.7 mph -999.0 mph 18 % 0 in
14:33 55.9 °F 15.4 °F 30.16 in NW 3.2 mph -999.0 mph 20 % 0 in
14:49 55.4 °F 11.3 °F 30.16 in West 1.7 mph -999.0 mph 17 % 0 in
15:04 54.7 °F 13.2 °F 30.16 in Calm   -999.0 mph 19 % 0 in
15:49 52.3 °F 11.2 °F 30.16 in Calm   -999.0 mph 19 % 0 in
16:05 51.3 °F 12.6 °F 30.16 in Calm   -999.0 mph 21 % 0 in
16:20 50.2 °F 12.8 °F 30.16 in Calm   -999.0 mph 22 % 0 in
16:35 48.4 °F 13.2 °F 30.17 in Calm   -999.0 mph 24 % 0 in
16:50 46.6 °F 13.5 °F 30.17 in South 1.7 mph -999.0 mph 26 % 0 in
17:21 43.7 °F 12.7 °F 30.18 in South 2.7 mph -999.0 mph 28 % 0 in
17:36 42.4 °F 13.1 °F 30.19 in South 2.7 mph -999.0 mph 30 % 0 in
17:51 41.4 °F 13.0 °F 30.19 in SSE 1.7 mph -999.0 mph 31 % 0 in
18:22 39.6 °F 7.5 °F 30.19 in South 2.2 mph -999.0 mph 26 % 0 in
18:37 38.5 °F 9.0 °F 30.20 in Calm   -999.0 mph 29 % 0 in
18:52 37.9 °F 9.9 °F 30.20 in South 1.1 mph -999.0 mph 31 % 0 in
19:07 37.4 °F 10.9 °F 30.20 in Calm   -999.0 mph 33 % 0 in
19:38 35.4 °F 2.1 °F 30.20 in South 1.7 mph -999.0 mph 24 % 0 in
19:53 34.9 °F 1.7 °F 30.20 in Calm   -999.0 mph 24 % 0 in
20:08 34.2 °F 2.8 °F 30.20 in Calm   -999.0 mph 26 % 0 in
20:23 34.0 °F 4.3 °F 30.20 in Calm   -999.0 mph 28 % 0 in
20:38 33.8 °F 10.3 °F 30.21 in Calm   -999.0 mph 37 % 0 in
20:54 33.4 °F 12.7 °F 30.21 in Calm   -999.0 mph 42 % 0 in
21:09 33.6 °F 13.5 °F 30.21 in Calm   -999.0 mph 43 % 0 in
21:24 32.7 °F 13.2 °F 30.21 in Calm   -999.0 mph 44 % 0 in
21:39 32.9 °F 13.4 °F 30.21 in Calm   -999.0 mph 44 % 0 in
22:10 32.2 °F 12.2 °F 30.21 in Calm   -999.0 mph 43 % 0 in
22:40 31.5 °F 11.6 °F 30.20 in Calm   -999.0 mph 43 % 0 in
22:55 31.5 °F 11.0 °F 30.21 in Calm   -999.0 mph 42 % 0 in
23:11 31.6 °F 11.1 °F 30.20 in Calm   -999.0 mph 42 % 0 in
23:26 31.5 °F 14.0 °F 30.20 in Calm   -999.0 mph 48 % 0 in
23:41 31.1 °F 15.5 °F 30.20 in Calm   -999.0 mph 52 % 0 in
23:56 30.9 °F 14.9 °F 30.20 in Calm   -999.0 mph 51 % 0 in
Big Bear CA Weather
Compliments of Weather Underground - 1.25 mb